EGCCEGMC

Guest
Details From EGCC - Manchester
To EGMC - Southend
Flight Number -
Tags Generated
Created
Modified
Stats Distance 153 nm / 282 km
Max Altitude 0 ft / 0 m
Waypoints 2
Social Downloads 2
Likes 0
Share VATSIM

Download

Looking for another format? Having issues loading an existing format? Contact us
Advertisement - Login to hide

Notes

Generated

Route

EGCC EGMC

ID Type Via Altitude Latitude Longitude Leg Dist Tot Dist Heading (true) Name
O EGCC APT - 0 ft / 0 m 53.33197˚ -2.31066˚ - 0 nm - -
O EGMC APT - 0 ft / 0 m 51.56725˚ 0.68627˚ 152 nm 152 nm 133° / 135° -

Altitude Profile

Advertisement - Login to hide

EGCC

Details ICAO EGCC (MAN)
Name Manchester Intl
Region United Kingdom
Timezone Europe/London (UTC+1.0)
Stats Elevation 257 ft / 78 m (AMSL)
Location 53.347141° -2.283954°
Runways 2
Magnetic Variation 1.393° W

METAR

EGCC 210920Z AUTO VRB02KT 9999 NCD 19/07 Q1018 NOSIG

Decode

TAF

TAF EGCC 210454Z 2106/2212 VRB04KT 9999 FEW045 PROB30 2106/2108 8000 PROB30 TEMPO 2114/2120 8000 SHRA PROB30 2202/2208 6000

Decode

Departure Runways

ID Width Length Bearing (true) Bearing (mag) Surface Threshold Offset Overrun Length
05L 151 ft / 46 m 9,981 ft / 3,042 m 50.99° 52.38° Asphalt 1,401 ft / 427 m 0 ft / 0 m
05R 151 ft / 46 m 9,952 ft / 3,033 m 50.97° 52.36° Asphalt 0 ft / 0 m 26 ft / 8 m
23L 151 ft / 46 m 9,952 ft / 3,033 m 231.00° 232.39° Asphalt 561 ft / 171 m 0 ft / 0 m
23R 151 ft / 46 m 9,981 ft / 3,042 m 231.02° 232.41° Asphalt 597 ft / 182 m 0 ft / 0 m

EGMC

Details ICAO EGMC (SEN)
Name Southend
Region United Kingdom
Timezone Europe/London (UTC+1.0)
Stats Elevation 49 ft / 15 m (AMSL)
Location 51.571443° 0.695583°
Runways 1
Magnetic Variation 0.108° W

METAR

EGMC 210920Z VRB02KT 9000 FEW025 16/12 Q1016

Decode

TAF

Not found

Destination Runways

ID Width Length Bearing (true) Bearing (mag) Surface Threshold Offset Overrun Length
06 121 ft / 37 m 5,230 ft / 1,594 m 54.10° 54.21° Asphalt 558 ft / 170 m 0 ft / 0 m
24 121 ft / 37 m 5,230 ft / 1,594 m 234.11° 234.22° Asphalt 466 ft / 142 m 0 ft / 0 m

Approach Navaids

Runway Type Ident Frequency Range Bearing (true) Bearing (mag) Slope Elevation
24 Localiser IND 111.35 MHz 18 nm / 33 km 234.08° 234.19° - 49 ft / 15 m (AMSL)
24 Glidescope IND 111.35 MHz 10 nm / 19 km 234.10° 234.21° 3.50° 49 ft / 15 m (AMSL)
24 DME IND 111.35 MHz 18 nm / 33 km - - - 49 ft / 15 m (AMSL)

Popular Alternatives